Liberty Promise — WWMZ — position and weather

sailwx.info

Track history (hours):
 
Tides and Currents Weather Stations Pressure Air Temp Water Temp Dewpoint Dewpoint Depression Visibility Wind Speed Wind Dir Waves Ship Positions

Liberty Promise

Owner: LIBERTY PROMISE CORPORATION, LAKE SUCCESS, NY. More information available from US FCC via Universal Licensing System and Coast Guard Vessel Documentation Center.

Last reported at 2015-Mar-26 13:33 UTC. Time now 2015-Mar-31 06:43 UTC.
Position N 30°53' E 032°19'.

Length 200 m; draft 8.8 m.

Type: Cargo ship. MMSI: 366102000.

Date/timePositionNaut miles runAvg speedWind from/ knotsBaromVisibWave heightAir tempDewpointWater temp
2015-Mar-26 13:33N 30°53' E 032°19'9 9.1
2015-Mar-26 12:33N 31°02' E 032°19'21 1.0
2015-Mar-25 16:14N 31°23' E 032°20'0 0.0
2015-Mar-25 15:20N 31°23' E 032°20'  
2015-Mar-23 06:25N 36°29' E 014°28'1517.6
2015-Mar-23 05:33N 36°33' E 014°10'1817.9
2015-Mar-23 04:33N 36°39' E 013°48'1817.8
2015-Mar-23 03:32N 36°45' E 013°28'59917.9
2015-Mar-21 18:00N 36°42' E 001°00'2 5.3 110 / 71004.3 5.4 16.012.4
2015-Mar-21 17:33N 36°44' E 000°58'7517.4
2015-Mar-21 13:12N 36°29' W 000°34'22118.5
2015-Mar-21 01:17N 36°01' W 005°06'1520.8
2015-Mar-21 00:33N 35°58' W 005°24'23616.5
2015-Mar-20 10:18N 37°44' W 009°47'1519.5
2015-Mar-20 09:32N 37°58' W 009°51'3919.7
2015-Mar-20 07:33N 38°36' W 010°03'2119.8
2015-Mar-20 06:31N 38°57' W 010°05'2219.6
2015-Mar-20 05:25N 39°18' W 010°05'54118.8
2015-Mar-19 00:33N 47°58' W 006°32'17115.3
2015-Mar-18 13:22N 50°08' W 003°43'1316.6
2015-Mar-18 12:33N 50°18' W 003°29'1111.2
2015-Mar-18 11:33N 50°24' W 003°15'1716.8
2015-Mar-18 10:33N 50°25' W 002°48'1716.6
2015-Mar-18 09:33N 50°25' W 002°22'1815.2
2015-Mar-18 08:22N 50°25' W 001°54'4 5.3
2015-Mar-18 07:33N 50°25' W 001°47'1110.6
2015-Mar-18 06:33N 50°25' W 001°31'1212.3
2015-Mar-18 05:33N 50°26' W 001°11'1312.7
2015-Mar-18 04:34N 50°26' W 000°52'1514.7
2015-Mar-18 03:34N 50°27' W 000°29'1615.9
2015-Mar-18 02:33N 50°31' W 000°04'1616.5
2015-Mar-18 01:34N 50°35' E 000°21'1616.2
2015-Mar-18 00:34N 50°40' E 000°45'1515.3
2015-Mar-17 23:34N 50°49' E 001°05'1413.9
2015-Mar-17 22:34N 50°58' E 001°22'1313.0
2015-Mar-17 21:33N 51°07' E 001°37'1413.8
2015-Mar-17 20:33N 51°17' E 001°51'1312.5
2015-Mar-17 19:33N 51°23' E 002°09'1515.4
2015-Mar-17 18:33N 51°22' E 002°34'1413.7
2015-Mar-17 17:34N 51°23' E 002°56'1616.3
2015-Mar-17 16:34N 51°25' E 003°22'1313.0
2015-Mar-17 15:33N 51°24' E 003°43'1211.9
2015-Mar-17 14:33N 51°26' E 004°01'1111.1
2015-Mar-17 13:34N 51°20' E 004°16'4 3.8
2015-Mar-17 12:34N 51°16' E 004°17'1 0.8
2015-Mar-17 11:33N 51°16' E 004°15'1 1.4
2015-Mar-17 10:33N 51°16' E 004°13'0 0.0
2015-Mar-17 09:33N 51°16' E 004°13'0 0.0
2015-Mar-17 08:33N 51°16' E 004°13'0 0.0
2015-Mar-17 07:33N 51°16' E 004°13'0 0.0
2015-Mar-17 06:33N 51°16' E 004°13'0 0.0
2015-Mar-17 05:33N 51°16' E 004°13'0 0.0
2015-Mar-17 04:34N 51°16' E 004°13'0 0.0
2015-Mar-17 03:33N 51°16' E 004°13'0 0.0
2015-Mar-17 02:33N 51°16' E 004°13'0 0.0
2015-Mar-17 01:33N 51°16' E 004°13'0 0.0
2015-Mar-17 00:33N 51°16' E 004°13'0 0.0
2015-Mar-16 23:33N 51°16' E 004°13'0 0.0
2015-Mar-16 22:33N 51°16' E 004°13'0 0.0
2015-Mar-16 21:33N 51°16' E 004°13'0 0.0
2015-Mar-16 20:33N 51°16' E 004°13'0 0.0
2015-Mar-16 19:33N 51°16' E 004°13'0 0.0
2015-Mar-16 18:33N 51°16' E 004°13'0 0.0
2015-Mar-16 17:33N 51°16' E 004°13'0 0.0
2015-Mar-16 16:33N 51°16' E 004°13'0 0.0
2015-Mar-16 15:33N 51°16' E 004°13'0 0.0
2015-Mar-16 14:33N 51°16' E 004°13'  
Track history (hours):
 
Tides and Currents Weather Stations Pressure Air Temp Water Temp Dewpoint Dewpoint Depression Visibility Wind Speed Wind Dir Waves Ship Positions

Liberty Promise

Owner: LIBERTY PROMISE CORPORATION, LAKE SUCCESS, NY. More information available from US FCC via Universal Licensing System and Coast Guard Vessel Documentation Center.

Last reported at 2015-Mar-26 13:33 UTC. Time now 2015-Mar-31 06:43 UTC.
Position N 30°53' E 032°19'.

Length 200 m; draft 8.8 m.

Type: Cargo ship. MMSI: 366102000.

Date/timePositionNaut miles runAvg speedWind from/ knotsBaromVisibWave heightAir tempDewpointWater temp
2015-Mar-26 13:33N 30°53' E 032°19'9 9.1
2015-Mar-26 12:33N 31°02' E 032°19'21 1.0
2015-Mar-25 16:14N 31°23' E 032°20'0 0.0
2015-Mar-25 15:20N 31°23' E 032°20'  
2015-Mar-23 06:25N 36°29' E 014°28'1517.6
2015-Mar-23 05:33N 36°33' E 014°10'1817.9
2015-Mar-23 04:33N 36°39' E 013°48'1817.8
2015-Mar-23 03:32N 36°45' E 013°28'59917.9
2015-Mar-21 18:00N 36°42' E 001°00'2 5.3 110 / 71004.3 5.4 16.012.4
2015-Mar-21 17:33N 36°44' E 000°58'7517.4
2015-Mar-21 13:12N 36°29' W 000°34'22118.5
2015-Mar-21 01:17N 36°01' W 005°06'1520.8
2015-Mar-21 00:33N 35°58' W 005°24'23616.5
2015-Mar-20 10:18N 37°44' W 009°47'1519.5
2015-Mar-20 09:32N 37°58' W 009°51'3919.7
2015-Mar-20 07:33N 38°36' W 010°03'2119.8
2015-Mar-20 06:31N 38°57' W 010°05'2219.6
2015-Mar-20 05:25N 39°18' W 010°05'54118.8
2015-Mar-19 00:33N 47°58' W 006°32'17115.3
2015-Mar-18 13:22N 50°08' W 003°43'1316.6
2015-Mar-18 12:33N 50°18' W 003°29'1111.2
2015-Mar-18 11:33N 50°24' W 003°15'1716.8
2015-Mar-18 10:33N 50°25' W 002°48'1716.6
2015-Mar-18 09:33N 50°25' W 002°22'1815.2
2015-Mar-18 08:22N 50°25' W 001°54'4 5.3
2015-Mar-18 07:33N 50°25' W 001°47'1110.6
2015-Mar-18 06:33N 50°25' W 001°31'1212.3
2015-Mar-18 05:33N 50°26' W 001°11'1312.7
2015-Mar-18 04:34N 50°26' W 000°52'1514.7
2015-Mar-18 03:34N 50°27' W 000°29'1615.9
2015-Mar-18 02:33N 50°31' W 000°04'1616.5
2015-Mar-18 01:34N 50°35' E 000°21'1616.2
2015-Mar-18 00:34N 50°40' E 000°45'1515.3
2015-Mar-17 23:34N 50°49' E 001°05'1413.9
2015-Mar-17 22:34N 50°58' E 001°22'1313.0
2015-Mar-17 21:33N 51°07' E 001°37'1413.8
2015-Mar-17 20:33N 51°17' E 001°51'1312.5
2015-Mar-17 19:33N 51°23' E 002°09'1515.4
2015-Mar-17 18:33N 51°22' E 002°34'1413.7
2015-Mar-17 17:34N 51°23' E 002°56'1616.3
2015-Mar-17 16:34N 51°25' E 003°22'1313.0
2015-Mar-17 15:33N 51°24' E 003°43'1211.9
2015-Mar-17 14:33N 51°26' E 004°01'1111.1
2015-Mar-17 13:34N 51°20' E 004°16'4 3.8
2015-Mar-17 12:34N 51°16' E 004°17'1 0.8
2015-Mar-17 11:33N 51°16' E 004°15'1 1.4
2015-Mar-17 10:33N 51°16' E 004°13'0 0.0
2015-Mar-17 09:33N 51°16' E 004°13'0 0.0
2015-Mar-17 08:33N 51°16' E 004°13'0 0.0
2015-Mar-17 07:33N 51°16' E 004°13'0 0.0
2015-Mar-17 06:33N 51°16' E 004°13'0 0.0
2015-Mar-17 05:33N 51°16' E 004°13'0 0.0
2015-Mar-17 04:34N 51°16' E 004°13'0 0.0
2015-Mar-17 03:33N 51°16' E 004°13'0 0.0
2015-Mar-17 02:33N 51°16' E 004°13'0 0.0
2015-Mar-17 01:33N 51°16' E 004°13'0 0.0
2015-Mar-17 00:33N 51°16' E 004°13'0 0.0
2015-Mar-16 23:33N 51°16' E 004°13'0 0.0
2015-Mar-16 22:33N 51°16' E 004°13'0 0.0
2015-Mar-16 21:33N 51°16' E 004°13'0 0.0
2015-Mar-16 20:33N 51°16' E 004°13'0 0.0
2015-Mar-16 19:33N 51°16' E 004°13'0 0.0
2015-Mar-16 18:33N 51°16' E 004°13'0 0.0
2015-Mar-16 17:33N 51°16' E 004°13'0 0.0
2015-Mar-16 16:33N 51°16' E 004°13'0 0.0
2015-Mar-16 15:33N 51°16' E 004°13'0 0.0
2015-Mar-16 14:33N 51°16' E 004°13'  

Dump ship's entire track history